sensor_id;sensor_type;location;lat;lon;timestamp;P1;durP1;ratioP1;P2;durP2;ratioP2
72645;SDS011;60687;53.876;10.674;2023-09-08T00:06:00;8.93;;;3.80;;
72645;SDS011;60687;53.876;10.674;2023-09-08T00:16:04;8.63;;;4.28;;
72645;SDS011;60687;53.876;10.674;2023-09-08T00:26:08;7.57;;;4.17;;
72645;SDS011;60687;53.876;10.674;2023-09-08T00:36:13;8.77;;;4.83;;
72645;SDS011;60687;53.876;10.674;2023-09-08T00:46:16;8.00;;;4.43;;
72645;SDS011;60687;53.876;10.674;2023-09-08T00:56:20;9.82;;;4.25;;
72645;SDS011;60687;53.876;10.674;2023-09-08T01:06:23;8.20;;;3.97;;
72645;SDS011;60687;53.876;10.674;2023-09-08T01:16:27;8.73;;;4.53;;
72645;SDS011;60687;53.876;10.674;2023-09-08T01:26:31;8.13;;;4.53;;
72645;SDS011;60687;53.876;10.674;2023-09-08T01:36:37;10.17;;;4.83;;
72645;SDS011;60687;53.876;10.674;2023-09-08T01:46:42;8.30;;;4.17;;
72645;SDS011;60687;53.876;10.674;2023-09-08T01:56:44;9.77;;;5.20;;
72645;SDS011;60687;53.876;10.674;2023-09-08T02:06:48;8.87;;;4.87;;
72645;SDS011;60687;53.876;10.674;2023-09-08T02:16:51;9.77;;;4.67;;
72645;SDS011;60687;53.876;10.674;2023-09-08T02:26:55;8.33;;;4.50;;
72645;SDS011;60687;53.876;10.674;2023-09-08T02:36:58;7.93;;;4.22;;
72645;SDS011;60687;53.876;10.674;2023-09-08T02:47:03;9.97;;;5.80;;
72645;SDS011;60687;53.876;10.674;2023-09-08T02:57:08;9.40;;;5.40;;
72645;SDS011;60687;53.876;10.674;2023-09-08T03:07:11;9.07;;;5.57;;
72645;SDS011;60687;53.876;10.674;2023-09-08T03:17:14;9.30;;;5.43;;
72645;SDS011;60687;53.876;10.674;2023-09-08T03:27:18;9.40;;;5.33;;
72645;SDS011;60687;53.876;10.674;2023-09-08T03:37:20;10.02;;;5.70;;
72645;SDS011;60687;53.876;10.674;2023-09-08T03:47:25;9.20;;;5.13;;
72645;SDS011;60687;53.876;10.674;2023-09-08T03:57:27;9.50;;;5.73;;
72645;SDS011;60687;53.876;10.674;2023-09-08T04:07:31;12.57;;;6.13;;
72645;SDS011;60687;53.876;10.674;2023-09-08T04:17:34;11.65;;;5.70;;
72645;SDS011;60687;53.876;10.674;2023-09-08T04:27:39;12.27;;;6.47;;
72645;SDS011;60687;53.876;10.674;2023-09-08T04:37:41;10.50;;;5.83;;
72645;SDS011;60687;53.876;10.674;2023-09-08T04:47:45;12.90;;;6.70;;
72645;SDS011;60687;53.876;10.674;2023-09-08T04:57:48;10.87;;;6.27;;
72645;SDS011;60687;53.876;10.674;2023-09-08T05:07:53;10.30;;;5.70;;
72645;SDS011;60687;53.876;10.674;2023-09-08T05:17:57;11.77;;;6.50;;
72645;SDS011;60687;53.876;10.674;2023-09-08T05:28:03;10.05;;;6.05;;
72645;SDS011;60687;53.876;10.674;2023-09-08T05:38:05;12.83;;;7.23;;
72645;SDS011;60687;53.876;10.674;2023-09-08T05:48:09;11.27;;;6.40;;
72645;SDS011;60687;53.876;10.674;2023-09-08T05:58:12;10.35;;;6.22;;
72645;SDS011;60687;53.876;10.674;2023-09-08T06:08:16;12.53;;;6.73;;
72645;SDS011;60687;53.876;10.674;2023-09-08T06:18:19;13.80;;;7.83;;
72645;SDS011;60687;53.876;10.674;2023-09-08T06:28:23;13.07;;;7.75;;
72645;SDS011;60687;53.876;10.674;2023-09-08T06:38:26;11.70;;;7.90;;
72645;SDS011;60687;53.876;10.674;2023-09-08T06:48:34;13.67;;;8.40;;
72645;SDS011;60687;53.876;10.674;2023-09-08T06:58:37;12.30;;;8.10;;
72645;SDS011;60687;53.876;10.674;2023-09-08T07:08:41;10.40;;;6.05;;
72645;SDS011;60687;53.876;10.674;2023-09-08T07:18:44;13.73;;;6.03;;
72645;SDS011;60687;53.876;10.674;2023-09-08T07:28:48;12.10;;;7.30;;
72645;SDS011;60687;53.876;10.674;2023-09-08T07:38:52;10.73;;;7.20;;
72645;SDS011;60687;53.876;10.674;2023-09-08T07:48:57;10.67;;;6.93;;
72645;SDS011;60687;53.876;10.674;2023-09-08T07:59:00;11.40;;;6.10;;
72645;SDS011;60687;53.876;10.674;2023-09-08T08:09:04;11.02;;;6.45;;
72645;SDS011;60687;53.876;10.674;2023-09-08T08:19:07;11.80;;;5.63;;
72645;SDS011;60687;53.876;10.674;2023-09-08T08:29:11;9.97;;;5.93;;
72645;SDS011;60687;53.876;10.674;2023-09-08T08:39:14;10.20;;;6.07;;
72645;SDS011;60687;53.876;10.674;2023-09-08T08:49:18;11.10;;;6.20;;
72645;SDS011;60687;53.876;10.674;2023-09-08T08:59:21;11.03;;;6.07;;
72645;SDS011;60687;53.876;10.674;2023-09-08T09:09:26;8.73;;;4.87;;
72645;SDS011;60687;53.876;10.674;2023-09-08T09:19:30;9.05;;;5.45;;
72645;SDS011;60687;53.876;10.674;2023-09-08T09:29:40;10.77;;;5.20;;
72645;SDS011;60687;53.876;10.674;2023-09-08T09:39:48;8.17;;;4.73;;
72645;SDS011;60687;53.876;10.674;2023-09-08T09:49:52;8.95;;;4.75;;
72645;SDS011;60687;53.876;10.674;2023-09-08T09:59:58;10.07;;;4.50;;
72645;SDS011;60687;53.876;10.674;2023-09-08T10:10:04;10.27;;;4.10;;
72645;SDS011;60687;53.876;10.674;2023-09-08T10:20:07;9.25;;;3.80;;
72645;SDS011;60687;53.876;10.674;2023-09-08T10:30:13;8.90;;;3.70;;
72645;SDS011;60687;53.876;10.674;2023-09-08T10:40:21;7.60;;;3.73;;
72645;SDS011;60687;53.876;10.674;2023-09-08T10:50:31;7.75;;;3.55;;
72645;SDS011;60687;53.876;10.674;2023-09-08T11:00:44;8.23;;;3.60;;
72645;SDS011;60687;53.876;10.674;2023-09-08T11:10:50;8.60;;;3.73;;
72645;SDS011;60687;53.876;10.674;2023-09-08T11:20:53;7.60;;;3.65;;
72645;SDS011;60687;53.876;10.674;2023-09-08T11:30:57;7.93;;;3.90;;
72645;SDS011;60687;53.876;10.674;2023-09-08T11:41:00;7.10;;;3.50;;
72645;SDS011;60687;53.876;10.674;2023-09-08T11:51:07;8.93;;;3.37;;
72645;SDS011;60687;53.876;10.674;2023-09-08T12:01:10;8.17;;;3.57;;
72645;SDS011;60687;53.876;10.674;2023-09-08T12:11:16;7.78;;;3.53;;
72645;SDS011;60687;53.876;10.674;2023-09-08T12:21:20;8.17;;;3.20;;
72645;SDS011;60687;53.876;10.674;2023-09-08T12:31:24;9.33;;;3.80;;
72645;SDS011;60687;53.876;10.674;2023-09-08T12:41:27;8.25;;;3.33;;
72645;SDS011;60687;53.876;10.674;2023-09-08T12:51:31;8.30;;;3.37;;
72645;SDS011;60687;53.876;10.674;2023-09-08T13:01:34;7.10;;;3.30;;
72645;SDS011;60687;53.876;10.674;2023-09-08T13:11:38;8.80;;;3.70;;
72645;SDS011;60687;53.876;10.674;2023-09-08T13:21:41;8.07;;;3.50;;
72645;SDS011;60687;53.876;10.674;2023-09-08T13:31:45;7.57;;;3.17;;
72645;SDS011;60687;53.876;10.674;2023-09-08T13:41:49;7.57;;;3.42;;
72645;SDS011;60687;53.876;10.674;2023-09-08T13:51:54;7.03;;;3.03;;
72645;SDS011;60687;53.876;10.674;2023-09-08T14:01:58;7.90;;;3.13;;
72645;SDS011;60687;53.876;10.674;2023-09-08T14:12:05;7.85;;;3.65;;
72645;SDS011;60687;53.876;10.674;2023-09-08T14:22:09;8.37;;;3.57;;
72645;SDS011;60687;53.876;10.674;2023-09-08T14:32:13;7.10;;;3.57;;
72645;SDS011;60687;53.876;10.674;2023-09-08T14:42:16;8.02;;;3.38;;
72645;SDS011;60687;53.876;10.674;2023-09-08T14:52:20;9.43;;;3.50;;
72645;SDS011;60687;53.876;10.674;2023-09-08T15:02:23;8.73;;;3.10;;
72645;SDS011;60687;53.876;10.674;2023-09-08T15:12:27;7.72;;;2.70;;
72645;SDS011;60687;53.876;10.674;2023-09-08T15:22:30;6.70;;;2.60;;
72645;SDS011;60687;53.876;10.674;2023-09-08T15:32:34;6.63;;;2.60;;
72645;SDS011;60687;53.876;10.674;2023-09-08T15:42:39;7.13;;;3.00;;
72645;SDS011;60687;53.876;10.674;2023-09-08T15:52:43;6.43;;;2.70;;
72645;SDS011;60687;53.876;10.674;2023-09-08T16:02:46;6.87;;;2.83;;
72645;SDS011;60687;53.876;10.674;2023-09-08T16:12:50;8.05;;;2.72;;
72645;SDS011;60687;53.876;10.674;2023-09-08T16:22:54;8.93;;;3.20;;
72645;SDS011;60687;53.876;10.674;2023-09-08T16:32:58;9.13;;;3.10;;
72645;SDS011;60687;53.876;10.674;2023-09-08T16:43:00;7.25;;;3.15;;
72645;SDS011;60687;53.876;10.674;2023-09-08T16:53:05;6.60;;;2.97;;
72645;SDS011;60687;53.876;10.674;2023-09-08T17:03:09;8.63;;;4.23;;
72645;SDS011;60687;53.876;10.674;2023-09-08T17:13:15;8.93;;;4.38;;
72645;SDS011;60687;53.876;10.674;2023-09-08T17:23:17;9.40;;;4.00;;
72645;SDS011;60687;53.876;10.674;2023-09-08T17:33:23;7.50;;;3.90;;
72645;SDS011;60687;53.876;10.674;2023-09-08T17:43:25;7.40;;;3.42;;
72645;SDS011;60687;53.876;10.674;2023-09-08T17:53:29;9.27;;;3.93;;
72645;SDS011;60687;53.876;10.674;2023-09-08T18:03:39;8.40;;;4.00;;
72645;SDS011;60687;53.876;10.674;2023-09-08T18:13:49;8.13;;;4.22;;
72645;SDS011;60687;53.876;10.674;2023-09-08T18:23:52;10.03;;;5.13;;
72645;SDS011;60687;53.876;10.674;2023-09-08T18:33:56;8.53;;;4.07;;
72645;SDS011;60687;53.876;10.674;2023-09-08T18:43:59;8.68;;;4.57;;
72645;SDS011;60687;53.876;10.674;2023-09-08T18:54:04;9.00;;;4.57;;
72645;SDS011;60687;53.876;10.674;2023-09-08T19:04:07;9.20;;;5.27;;
72645;SDS011;60687;53.876;10.674;2023-09-08T19:14:13;10.57;;;5.22;;
72645;SDS011;60687;53.876;10.674;2023-09-08T19:24:38;11.73;;;6.33;;
72645;SDS011;60687;53.876;10.674;2023-09-08T19:34:45;11.67;;;7.00;;
72645;SDS011;60687;53.876;10.674;2023-09-08T19:44:47;10.00;;;6.03;;
72645;SDS011;60687;53.876;10.674;2023-09-08T19:54:51;10.15;;;6.28;;
72645;SDS011;60687;53.876;10.674;2023-09-08T20:04:53;9.90;;;5.67;;
72645;SDS011;60687;53.876;10.674;2023-09-08T20:14:57;9.90;;;5.60;;
72645;SDS011;60687;53.876;10.674;2023-09-08T20:25:00;9.98;;;5.38;;
72645;SDS011;60687;53.876;10.674;2023-09-08T20:35:06;13.00;;;7.10;;
72645;SDS011;60687;53.876;10.674;2023-09-08T20:45:10;12.60;;;6.60;;
72645;SDS011;60687;53.876;10.674;2023-09-08T20:55:14;10.35;;;5.43;;
72645;SDS011;60687;53.876;10.674;2023-09-08T21:05:16;12.57;;;7.07;;
72645;SDS011;60687;53.876;10.674;2023-09-08T21:15:20;11.20;;;6.60;;
72645;SDS011;60687;53.876;10.674;2023-09-08T21:25:23;10.20;;;6.23;;
72645;SDS011;60687;53.876;10.674;2023-09-08T21:35:27;11.32;;;6.22;;
72645;SDS011;60687;53.876;10.674;2023-09-08T21:45:31;9.80;;;5.73;;
72645;SDS011;60687;53.876;10.674;2023-09-08T21:55:35;10.43;;;5.73;;
72645;SDS011;60687;53.876;10.674;2023-09-08T22:05:38;11.40;;;6.43;;
72645;SDS011;60687;53.876;10.674;2023-09-08T22:15:43;11.03;;;5.77;;
72645;SDS011;60687;53.876;10.674;2023-09-08T22:25:46;10.50;;;6.07;;
72645;SDS011;60687;53.876;10.674;2023-09-08T22:35:50;9.93;;;6.07;;
72645;SDS011;60687;53.876;10.674;2023-09-08T22:45:52;9.90;;;5.13;;
72645;SDS011;60687;53.876;10.674;2023-09-08T22:55:56;10.47;;;5.40;;
72645;SDS011;60687;53.876;10.674;2023-09-08T23:05:59;9.17;;;5.07;;
72645;SDS011;60687;53.876;10.674;2023-09-08T23:16:03;10.52;;;5.35;;
72645;SDS011;60687;53.876;10.674;2023-09-08T23:26:06;9.73;;;4.77;;
72645;SDS011;60687;53.876;10.674;2023-09-08T23:36:10;9.43;;;4.77;;
72645;SDS011;60687;53.876;10.674;2023-09-08T23:46:13;8.55;;;4.70;;
72645;SDS011;60687;53.876;10.674;2023-09-08T23:56:17;9.90;;;4.60;;
